Versailles, IN (47042)

4:11 PM EST on February 23, 2017 (GMT -0500)
RCEMA - Versailles | | Change Station

Elev 955 ft 39.07 °N, 85.25 °W | Updated 1 minute ago

Overcast
Overcast
64.3 °F
Feels Like 64.3 °F
N
5.0
Wind Variable Wind from South
Gusts 6.0 mph

Today
High -- | Low -- °F
--% Chance of Precip.
Yesterday
High -- | Low -- °F
Precip. -- in
Pressure 29.74 in
Visibility 10.0 miles
Clouds Few 3100 ft
Scattered Clouds 4200 ft
Scattered Clouds 6000 ft
Mostly Cloudy 21000 ft
Overcast 30000 ft
Dew Point 55 °F
Humidity 71%
Rainfall 0.00 in
Snow Depth Not available.
7:21 AM 6:27 PM
Waning Crescent, 8% visible
METAR KCVG 232052Z 20013G19KT 10SM FEW031 SCT042 SCT060 BKN210 OVC300 21/13 A2976 RMK AO2 SLP069 T02060128 56009
Pressure 29.74 in
Visibility 10.0 miles
Clouds Few 3100 ft
Scattered Clouds 4200 ft
Scattered Clouds 6000 ft
Mostly Cloudy 21000 ft
Overcast 30000 ft
Dew Point 55 °F
Humidity 71%
Rainfall 0.00 in
Snow Depth Not available.
7:21 AM 6:27 PM
Waning Crescent, 8% visible
METAR KCVG 232052Z 20013G19KT 10SM FEW031 SCT042 SCT060 BKN210 OVC300 21/13 A2976 RMK AO2 SLP069 T02060128 56009

Get Your Daily Forecast Email!

Thanks for signing up!

Be on the lookout for a verification email in your inbox.

You'll start receiving the daily forecast at 8 AM.

×

10-Day Weather Forecast

Almanac

Astronomy

Feb. 23, 2017 Rise Set
Actual Time
Civil Twilight
Nautical Twilight
Astronomical Twilight
Moon
Length of Visible Light
Length of Day
Tomorrow will be .
, % of the Moon is Illuminated

Today's Extremes

State Highs State Lows

Community

WunderPhotos

Upload Photos

1,962,540 photos uploaded!

WunderBlog® & News

Nearby

Air Quality

  Air Quality AQ Index Pollutant
Not available.

Snow Depth

Station Depth Elevation

Earthquake Activity

City Distance Mag. Time & Date
Minimum magnitude displayed is 2.5.

Coastal Water Temperatures

Place Temperature

Stations

Nearby Weather Stations

Station Location Temp. Windchill Dew Point Humidity Wind Precip. Elev Updated Type
                   

Watches & Warnings

There are currently no watches in effect.